Buoy 52514

sailwx.info

Track history (hours):
 
Tides and Currents Weather Stations Pressure Air Temp Water Temp Dewpoint Dewpoint Depression Visibility Wind Speed Wind Dir Waves Ship Positions

Drifting buoy 52514

Last reported at 2017-Jan-17 22:00 UTC. Time now 2017-Jan-17 23:39 UTC.
Position N 20°52' E 135°07'.

Date/timePositionNaut miles runAvg speedWind from/ knotsBaromVisibWave heightAir tempDewpointWater temp
2017-Jan-17 22:00N 20°52' E 135°07'2 1.7
2017-Jan-17 21:00N 20°52' E 135°09'1 0.6
2017-Jan-17 20:00N 20°52' E 135°10'0 0.0
2017-Jan-17 19:00N 20°52' E 135°10'1 1.1
2017-Jan-17 18:00N 20°52' E 135°11'8 1.6
2017-Jan-17 13:00N 20°55' E 135°19'3 3.3
2017-Jan-17 12:00N 20°57' E 135°21'0 0.0
2017-Jan-17 11:00N 20°57' E 135°21'0 0.0
2017-Jan-17 10:00N 20°57' E 135°21'1 1.3
2017-Jan-17 09:00N 20°58' E 135°22'1 1.3
2017-Jan-17 08:00N 20°59' E 135°23'1 1.3
2017-Jan-17 07:00N 21°00' E 135°23'2 2.5
2017-Jan-17 06:00N 21°02' E 135°25'0 0.0
2017-Jan-17 05:00N 21°02' E 135°25'0 0.0
2017-Jan-17 04:00N 21°02' E 135°25'4 2.2
2017-Jan-17 02:00N 21°06' E 135°26'0 0.0
2017-Jan-17 01:00N 21°06' E 135°26'2 2.5
2017-Jan-17 00:00N 21°08' E 135°27'0 0.0
2017-Jan-16 23:00N 21°08' E 135°27'1 0.6
2017-Jan-16 22:00N 21°08' E 135°27'1 0.8
2017-Jan-16 21:00N 21°08' E 135°28'0 0.0
2017-Jan-16 20:00N 21°08' E 135°28'1 0.8
2017-Jan-16 19:00N 21°09' E 135°28'4 0.5
2017-Jan-16 12:00N 21°11' E 135°31'0 0.0
2017-Jan-16 11:00N 21°11' E 135°31'5 4.5
2017-Jan-16 10:00N 21°16' E 135°33'3 0.9
2017-Jan-16 07:00N 21°13' E 135°34'3 0.3
2017-Jan-15 20:00N 21°15' E 135°37'1 0.7
2017-Jan-15 18:00N 21°16' E 135°37'3 0.5
2017-Jan-15 13:00N 21°19' E 135°38'2 1.6
2017-Jan-15 12:00N 21°20' E 135°40'0 0.0
2017-Jan-15 11:00N 21°20' E 135°40'2 1.1
2017-Jan-15 09:00N 21°22' E 135°41'4 0.9
2017-Jan-15 05:00N 21°25' E 135°43'0 0.0
2017-Jan-15 04:00N 21°25' E 135°43'5 1.3
2017-Jan-15 00:00N 21°30' E 135°43'1 0.7
2017-Jan-14 22:00N 21°31' E 135°44'1 1.2
2017-Jan-14 21:00N 21°32' E 135°44'1 0.6
2017-Jan-14 20:00N 21°33' E 135°44'1 0.8
2017-Jan-14 19:00N 21°34' E 135°44'1 0.6
2017-Jan-14 18:00N 21°34' E 135°44'0 0.0
2017-Jan-14 17:00N 21°34' E 135°44'5 1.2
2017-Jan-14 13:00N 21°39' E 135°46'1 0.8
2017-Jan-14 12:00N 21°40' E 135°46'0 0.0
2017-Jan-14 11:00N 21°40' E 135°46'2 1.8
2017-Jan-14 10:00N 21°40' E 135°48'1 1.3
2017-Jan-14 09:00N 21°41' E 135°49'0 0.0
2017-Jan-14 08:00N 21°41' E 135°49'6 2.1
2017-Jan-14 05:00N 21°46' E 135°53'1 0.2
2017-Jan-14 01:00N 21°46' E 135°54'1 1.2
2017-Jan-14 00:00N 21°47' E 135°54'1 0.8
2017-Jan-13 23:00N 21°48' E 135°53'0 0.0
2017-Jan-13 22:00N 21°48' E 135°53'1 1.2
2017-Jan-13 21:00N 21°49' E 135°53'0 0.0
2017-Jan-13 20:00N 21°49' E 135°53'1 1.2
2017-Jan-13 19:00N 21°50' E 135°53'1 0.6
2017-Jan-13 18:00N 21°50' E 135°54'2 1.1
2017-Jan-13 16:00N 21°52' E 135°53'0 0.0
2017-Jan-13 13:00N 21°52' E 135°53'0 0.0
2017-Jan-13 12:00N 21°52' E 135°53'1 0.8
2017-Jan-13 11:00N 21°53' E 135°52'0 0.0
2017-Jan-13 10:00N 21°53' E 135°52'1 0.8
2017-Jan-13 09:00N 21°53' E 135°52'0 0.0
2017-Jan-13 08:00N 21°53' E 135°52'0 0.0
2017-Jan-13 07:00N 21°53' E 135°52'2 1.2
2017-Jan-13 05:00N 21°55' E 135°53'0 0.0
2017-Jan-13 04:00N 21°55' E 135°53'1 0.2
2017-Jan-13 00:00N 21°56' E 135°54'1 0.6
2017-Jan-12 23:00N 21°56' E 135°54'0 0.0
2017-Jan-12 22:00N 21°56' E 135°54'1 0.6
2017-Jan-12 21:00N 21°57' E 135°54'1 0.6
2017-Jan-12 20:00N 21°58' E 135°54'1 0.3
2017-Jan-12 18:00N 21°58' E 135°54'1 0.6
2017-Jan-12 17:00N 21°58' E 135°55'0 0.0
2017-Jan-12 16:00N 21°58' E 135°55'2 0.8
2017-Jan-12 13:00N 22°01' E 135°55'1 0.6
2017-Jan-12 12:00N 22°01' E 135°55'0 0.0
2017-Jan-12 11:00N 22°01' E 135°55'1 0.6
2017-Jan-12 10:00N 22°02' E 135°55'1 0.6
2017-Jan-12 09:00N 22°02' E 135°55'1 0.8
2017-Jan-12 08:00N 22°03' E 135°55'1 0.8
2017-Jan-12 07:00N 22°04' E 135°55'1 1.2
2017-Jan-12 06:00N 22°05' E 135°55'0 0.0
2017-Jan-12 05:00N 22°05' E 135°55'0 0.0
2017-Jan-12 04:00N 22°05' E 135°55'0 0.0
2017-Jan-12 03:00N 22°05' E 135°55'3 3.4
2017-Jan-12 02:00N 22°08' E 135°57'0 0.0
2017-Jan-12 01:00N 22°08' E 135°57'1 0.6
2017-Jan-12 00:00N 22°08' E 135°57'2 0.9
2017-Jan-11 22:00N 22°10' E 135°56'1 0.6
2017-Jan-11 21:00N 22°11' E 135°56'0 0.0
2017-Jan-11 20:00N 22°11' E 135°56'2 0.9
2017-Jan-11 18:00N 22°13' E 135°56'0 0.0
2017-Jan-11 17:00N 22°13' E 135°56'0 0.0
2017-Jan-11 16:00N 22°13' E 135°56'4 0.9
2017-Jan-11 12:00N 22°16' E 135°57'1 1.3
2017-Jan-11 11:00N 22°17' E 135°58'2 2.5
2017-Jan-11 10:00N 22°19' E 135°58'0 0.0
2017-Jan-11 09:00N 22°19' E 135°58'1 1.3
2017-Jan-11 08:00N 22°20' E 135°58'2 1.8
2017-Jan-11 07:00N 22°22' E 135°58'2 1.9
2017-Jan-11 06:00N 22°24' E 135°59'0 0.0
2017-Jan-11 05:00N 22°24' E 135°59'0 0.0
2017-Jan-11 04:00N 22°24' E 135°59'0 0.0
2017-Jan-11 03:00N 22°24' E 135°59'7 3.6
2017-Jan-11 01:00N 22°31' E 135°59'0 0.0
2017-Jan-11 00:00N 22°31' E 135°59'1 0.6
2017-Jan-10 23:00N 22°32' E 135°59'1 0.6
2017-Jan-10 22:00N 22°32' E 135°59'2 0.9
2017-Jan-10 20:00N 22°34' E 135°59'1 0.6
2017-Jan-10 19:00N 22°35' E 135°59'2 1.8
2017-Jan-10 18:00N 22°37' E 135°59'1 0.8
2017-Jan-10 17:00N 22°37' E 135°58'0 0.0
2017-Jan-10 16:00N 22°37' E 135°58'2 0.8
2017-Jan-10 13:00N 22°40' E 135°59'1 0.6
2017-Jan-10 12:00N 22°40' E 135°59'4 0.9
2017-Jan-10 08:00N 22°44' E 135°59'0 0.0
2017-Jan-10 07:00N 22°44' E 135°59'2 2.4
2017-Jan-10 06:00N 22°46' E 135°59'0 0.0
2017-Jan-10 04:00N 22°46' E 135°59'2 0.8
2017-Jan-10 01:00N 22°49' E 135°59'1 0.6
2017-Jan-10 00:00N 22°49' E 135°59'1 1.3
2017-Jan-09 23:00N 22°50' E 135°58'0 0.0
2017-Jan-09 22:00N 22°50' E 135°58'0 0.0
2017-Jan-09 21:00N 22°50' E 135°58'1 1.3
2017-Jan-09 20:00N 22°52' E 135°58'1 0.6
2017-Jan-09 19:00N 22°52' E 135°57'1 0.8
2017-Jan-09 18:00N 22°52' E 135°56'0 0.0
2017-Jan-09 17:00N 22°52' E 135°56'0 0.0
2017-Jan-09 16:00N 22°52' E 135°56'4 1.3
2017-Jan-09 13:00N 22°54' E 135°53'1 0.6
2017-Jan-09 12:00N 22°54' E 135°52'2 1.1
2017-Jan-09 10:00N 22°54' E 135°50'1 0.8
2017-Jan-09 09:00N 22°55' E 135°49'1 0.6
2017-Jan-09 08:00N 22°55' E 135°49'1 1.1
2017-Jan-09 07:00N 22°55' E 135°47'0 0.0
2017-Jan-09 06:00N 22°55' E 135°47'1 1.3
2017-Jan-09 05:00N 22°55' E 135°46'0 0.0
2017-Jan-09 04:00N 22°55' E 135°46'6 1.8
2017-Jan-09 01:00N 22°58' E 135°41'0 0.0
2017-Jan-09 00:00N 22°58' E 135°41'3 2.8
2017-Jan-08 23:00N 22°58' E 135°38'0 0.0
2017-Jan-08 22:00N 22°58' E 135°38'1 0.6
2017-Jan-08 21:00N 22°58' E 135°37'1 1.3
2017-Jan-08 20:00N 22°59' E 135°36'1 0.6
2017-Jan-08 19:00N 22°59' E 135°36'1 0.6
2017-Jan-08 18:00N 22°59' E 135°35'0 0.0
2017-Jan-08 17:00N 22°59' E 135°35'4 1.1
2017-Jan-08 13:00N 23°04' E 135°35'0 0.0
2017-Jan-08 12:00N 23°04' E 135°35'1 1.1
2017-Jan-08 11:00N 23°04' E 135°36'2 2.5
2017-Jan-08 10:00N 23°06' E 135°37'1 0.8
2017-Jan-08 09:00N 23°07' E 135°37'5 1.6
2017-Jan-08 06:00N 23°11' E 135°38'0 0.0
2017-Jan-08 05:00N 23°11' E 135°38'0 0.0
2017-Jan-08 04:00N 23°11' E 135°38'1 0.3
2017-Jan-08 00:00N 23°13' E 135°39'  
Track history (hours):
 
Tides and Currents Weather Stations Pressure Air Temp Water Temp Dewpoint Dewpoint Depression Visibility Wind Speed Wind Dir Waves Ship Positions

Drifting buoy 52514

Last reported at 2017-Jan-17 22:00 UTC. Time now 2017-Jan-17 23:39 UTC.
Position N 20°52' E 135°07'.

Date/timePositionNaut miles runAvg speedWind from/ knotsBaromVisibWave heightAir tempDewpointWater temp
2017-Jan-17 22:00N 20°52' E 135°07'2 1.7
2017-Jan-17 21:00N 20°52' E 135°09'1 0.6
2017-Jan-17 20:00N 20°52' E 135°10'0 0.0
2017-Jan-17 19:00N 20°52' E 135°10'1 1.1
2017-Jan-17 18:00N 20°52' E 135°11'8 1.6
2017-Jan-17 13:00N 20°55' E 135°19'3 3.3
2017-Jan-17 12:00N 20°57' E 135°21'0 0.0
2017-Jan-17 11:00N 20°57' E 135°21'0 0.0
2017-Jan-17 10:00N 20°57' E 135°21'1 1.3
2017-Jan-17 09:00N 20°58' E 135°22'1 1.3
2017-Jan-17 08:00N 20°59' E 135°23'1 1.3
2017-Jan-17 07:00N 21°00' E 135°23'2 2.5
2017-Jan-17 06:00N 21°02' E 135°25'0 0.0
2017-Jan-17 05:00N 21°02' E 135°25'0 0.0
2017-Jan-17 04:00N 21°02' E 135°25'4 2.2
2017-Jan-17 02:00N 21°06' E 135°26'0 0.0
2017-Jan-17 01:00N 21°06' E 135°26'2 2.5
2017-Jan-17 00:00N 21°08' E 135°27'0 0.0
2017-Jan-16 23:00N 21°08' E 135°27'1 0.6
2017-Jan-16 22:00N 21°08' E 135°27'1 0.8
2017-Jan-16 21:00N 21°08' E 135°28'0 0.0
2017-Jan-16 20:00N 21°08' E 135°28'1 0.8
2017-Jan-16 19:00N 21°09' E 135°28'4 0.5
2017-Jan-16 12:00N 21°11' E 135°31'0 0.0
2017-Jan-16 11:00N 21°11' E 135°31'5 4.5
2017-Jan-16 10:00N 21°16' E 135°33'3 0.9
2017-Jan-16 07:00N 21°13' E 135°34'3 0.3
2017-Jan-15 20:00N 21°15' E 135°37'1 0.7
2017-Jan-15 18:00N 21°16' E 135°37'3 0.5
2017-Jan-15 13:00N 21°19' E 135°38'2 1.6
2017-Jan-15 12:00N 21°20' E 135°40'0 0.0
2017-Jan-15 11:00N 21°20' E 135°40'2 1.1
2017-Jan-15 09:00N 21°22' E 135°41'4 0.9
2017-Jan-15 05:00N 21°25' E 135°43'0 0.0
2017-Jan-15 04:00N 21°25' E 135°43'5 1.3
2017-Jan-15 00:00N 21°30' E 135°43'1 0.7
2017-Jan-14 22:00N 21°31' E 135°44'1 1.2
2017-Jan-14 21:00N 21°32' E 135°44'1 0.6
2017-Jan-14 20:00N 21°33' E 135°44'1 0.8
2017-Jan-14 19:00N 21°34' E 135°44'1 0.6
2017-Jan-14 18:00N 21°34' E 135°44'0 0.0
2017-Jan-14 17:00N 21°34' E 135°44'5 1.2
2017-Jan-14 13:00N 21°39' E 135°46'1 0.8
2017-Jan-14 12:00N 21°40' E 135°46'0 0.0
2017-Jan-14 11:00N 21°40' E 135°46'2 1.8
2017-Jan-14 10:00N 21°40' E 135°48'1 1.3
2017-Jan-14 09:00N 21°41' E 135°49'0 0.0
2017-Jan-14 08:00N 21°41' E 135°49'6 2.1
2017-Jan-14 05:00N 21°46' E 135°53'1 0.2
2017-Jan-14 01:00N 21°46' E 135°54'1 1.2
2017-Jan-14 00:00N 21°47' E 135°54'1 0.8
2017-Jan-13 23:00N 21°48' E 135°53'0 0.0
2017-Jan-13 22:00N 21°48' E 135°53'1 1.2
2017-Jan-13 21:00N 21°49' E 135°53'0 0.0
2017-Jan-13 20:00N 21°49' E 135°53'1 1.2
2017-Jan-13 19:00N 21°50' E 135°53'1 0.6
2017-Jan-13 18:00N 21°50' E 135°54'2 1.1
2017-Jan-13 16:00N 21°52' E 135°53'0 0.0
2017-Jan-13 13:00N 21°52' E 135°53'0 0.0
2017-Jan-13 12:00N 21°52' E 135°53'1 0.8
2017-Jan-13 11:00N 21°53' E 135°52'0 0.0
2017-Jan-13 10:00N 21°53' E 135°52'1 0.8
2017-Jan-13 09:00N 21°53' E 135°52'0 0.0
2017-Jan-13 08:00N 21°53' E 135°52'0 0.0
2017-Jan-13 07:00N 21°53' E 135°52'2 1.2
2017-Jan-13 05:00N 21°55' E 135°53'0 0.0
2017-Jan-13 04:00N 21°55' E 135°53'1 0.2
2017-Jan-13 00:00N 21°56' E 135°54'1 0.6
2017-Jan-12 23:00N 21°56' E 135°54'0 0.0
2017-Jan-12 22:00N 21°56' E 135°54'1 0.6
2017-Jan-12 21:00N 21°57' E 135°54'1 0.6
2017-Jan-12 20:00N 21°58' E 135°54'1 0.3
2017-Jan-12 18:00N 21°58' E 135°54'1 0.6
2017-Jan-12 17:00N 21°58' E 135°55'0 0.0
2017-Jan-12 16:00N 21°58' E 135°55'2 0.8
2017-Jan-12 13:00N 22°01' E 135°55'1 0.6
2017-Jan-12 12:00N 22°01' E 135°55'0 0.0
2017-Jan-12 11:00N 22°01' E 135°55'1 0.6
2017-Jan-12 10:00N 22°02' E 135°55'1 0.6
2017-Jan-12 09:00N 22°02' E 135°55'1 0.8
2017-Jan-12 08:00N 22°03' E 135°55'1 0.8
2017-Jan-12 07:00N 22°04' E 135°55'1 1.2
2017-Jan-12 06:00N 22°05' E 135°55'0 0.0
2017-Jan-12 05:00N 22°05' E 135°55'0 0.0
2017-Jan-12 04:00N 22°05' E 135°55'0 0.0
2017-Jan-12 03:00N 22°05' E 135°55'3 3.4
2017-Jan-12 02:00N 22°08' E 135°57'0 0.0
2017-Jan-12 01:00N 22°08' E 135°57'1 0.6
2017-Jan-12 00:00N 22°08' E 135°57'2 0.9
2017-Jan-11 22:00N 22°10' E 135°56'1 0.6
2017-Jan-11 21:00N 22°11' E 135°56'0 0.0
2017-Jan-11 20:00N 22°11' E 135°56'2 0.9
2017-Jan-11 18:00N 22°13' E 135°56'0 0.0
2017-Jan-11 17:00N 22°13' E 135°56'0 0.0
2017-Jan-11 16:00N 22°13' E 135°56'4 0.9
2017-Jan-11 12:00N 22°16' E 135°57'1 1.3
2017-Jan-11 11:00N 22°17' E 135°58'2 2.5
2017-Jan-11 10:00N 22°19' E 135°58'0 0.0
2017-Jan-11 09:00N 22°19' E 135°58'1 1.3
2017-Jan-11 08:00N 22°20' E 135°58'2 1.8
2017-Jan-11 07:00N 22°22' E 135°58'2 1.9
2017-Jan-11 06:00N 22°24' E 135°59'0 0.0
2017-Jan-11 05:00N 22°24' E 135°59'0 0.0
2017-Jan-11 04:00N 22°24' E 135°59'0 0.0
2017-Jan-11 03:00N 22°24' E 135°59'7 3.6
2017-Jan-11 01:00N 22°31' E 135°59'0 0.0
2017-Jan-11 00:00N 22°31' E 135°59'1 0.6
2017-Jan-10 23:00N 22°32' E 135°59'1 0.6
2017-Jan-10 22:00N 22°32' E 135°59'2 0.9
2017-Jan-10 20:00N 22°34' E 135°59'1 0.6
2017-Jan-10 19:00N 22°35' E 135°59'2 1.8
2017-Jan-10 18:00N 22°37' E 135°59'1 0.8
2017-Jan-10 17:00N 22°37' E 135°58'0 0.0
2017-Jan-10 16:00N 22°37' E 135°58'2 0.8
2017-Jan-10 13:00N 22°40' E 135°59'1 0.6
2017-Jan-10 12:00N 22°40' E 135°59'4 0.9
2017-Jan-10 08:00N 22°44' E 135°59'0 0.0
2017-Jan-10 07:00N 22°44' E 135°59'2 2.4
2017-Jan-10 06:00N 22°46' E 135°59'0 0.0
2017-Jan-10 04:00N 22°46' E 135°59'2 0.8
2017-Jan-10 01:00N 22°49' E 135°59'1 0.6
2017-Jan-10 00:00N 22°49' E 135°59'1 1.3
2017-Jan-09 23:00N 22°50' E 135°58'0 0.0
2017-Jan-09 22:00N 22°50' E 135°58'0 0.0
2017-Jan-09 21:00N 22°50' E 135°58'1 1.3
2017-Jan-09 20:00N 22°52' E 135°58'1 0.6
2017-Jan-09 19:00N 22°52' E 135°57'1 0.8
2017-Jan-09 18:00N 22°52' E 135°56'0 0.0
2017-Jan-09 17:00N 22°52' E 135°56'0 0.0
2017-Jan-09 16:00N 22°52' E 135°56'4 1.3
2017-Jan-09 13:00N 22°54' E 135°53'1 0.6
2017-Jan-09 12:00N 22°54' E 135°52'2 1.1
2017-Jan-09 10:00N 22°54' E 135°50'1 0.8
2017-Jan-09 09:00N 22°55' E 135°49'1 0.6
2017-Jan-09 08:00N 22°55' E 135°49'1 1.1
2017-Jan-09 07:00N 22°55' E 135°47'0 0.0
2017-Jan-09 06:00N 22°55' E 135°47'1 1.3
2017-Jan-09 05:00N 22°55' E 135°46'0 0.0
2017-Jan-09 04:00N 22°55' E 135°46'6 1.8
2017-Jan-09 01:00N 22°58' E 135°41'0 0.0
2017-Jan-09 00:00N 22°58' E 135°41'3 2.8
2017-Jan-08 23:00N 22°58' E 135°38'0 0.0
2017-Jan-08 22:00N 22°58' E 135°38'1 0.6
2017-Jan-08 21:00N 22°58' E 135°37'1 1.3
2017-Jan-08 20:00N 22°59' E 135°36'1 0.6
2017-Jan-08 19:00N 22°59' E 135°36'1 0.6
2017-Jan-08 18:00N 22°59' E 135°35'0 0.0
2017-Jan-08 17:00N 22°59' E 135°35'4 1.1
2017-Jan-08 13:00N 23°04' E 135°35'0 0.0
2017-Jan-08 12:00N 23°04' E 135°35'1 1.1
2017-Jan-08 11:00N 23°04' E 135°36'2 2.5
2017-Jan-08 10:00N 23°06' E 135°37'1 0.8
2017-Jan-08 09:00N 23°07' E 135°37'5 1.6
2017-Jan-08 06:00N 23°11' E 135°38'0 0.0
2017-Jan-08 05:00N 23°11' E 135°38'0 0.0
2017-Jan-08 04:00N 23°11' E 135°38'1 0.3
2017-Jan-08 00:00N 23°13' E 135°39'  

Dump ship's entire track history